createdAt,value
2023-04-19T00:00:51.265Z,1342.00
2023-04-19T00:01:52.260Z,1342.00
2023-04-19T00:02:51.383Z,1343.00
2023-04-19T00:03:51.411Z,1339.00
2023-04-19T00:04:51.354Z,1339.00
2023-04-19T00:05:51.201Z,1340.00
2023-04-19T00:06:52.210Z,1335.00
2023-04-19T00:07:51.207Z,1336.00
2023-04-19T00:08:52.225Z,1335.00
2023-04-19T00:09:52.239Z,1335.00
2023-04-19T00:10:51.252Z,1336.00
2023-04-19T00:11:51.251Z,1335.00
2023-04-19T00:12:52.275Z,1333.00
2023-04-19T00:13:52.280Z,1338.00
2023-04-19T00:14:51.316Z,1339.00
2023-04-19T00:15:52.354Z,1339.00
2023-04-19T00:16:52.388Z,1340.00
2023-04-19T00:17:52.370Z,1341.00
2023-04-19T00:18:52.374Z,1344.00
2023-04-19T00:19:51.405Z,1341.00
2023-04-19T00:20:52.402Z,1341.00
2023-04-19T00:21:51.408Z,1342.00
2023-04-19T00:22:51.423Z,1343.00
2023-04-19T00:23:52.451Z,1343.00
2023-04-19T00:24:52.464Z,1346.00
2023-04-19T00:25:52.482Z,1346.00
2023-04-19T00:26:52.476Z,1343.00
2023-04-19T00:27:52.490Z,1343.00
2023-04-19T00:28:52.504Z,1342.00
2023-04-19T00:29:52.516Z,1343.00
2023-04-19T00:30:52.614Z,1342.00
2023-04-19T00:31:52.550Z,1341.00
2023-04-19T00:32:52.681Z,1340.00
2023-04-19T00:33:52.583Z,1342.00
2023-04-19T00:34:52.609Z,1343.00
2023-04-19T00:35:51.619Z,1343.00
2023-04-19T00:36:52.609Z,1341.00
2023-04-19T00:37:51.613Z,1342.00
2023-04-19T00:38:52.661Z,1341.00
2023-04-19T00:39:52.666Z,1340.00
2023-04-19T00:40:51.638Z,1338.00
2023-04-19T00:41:52.703Z,1338.00
2023-04-19T00:42:52.701Z,1336.00
2023-04-19T00:43:52.696Z,1335.00
2023-04-19T00:44:51.718Z,1332.00
2023-04-19T00:45:52.839Z,1326.00
2023-04-19T00:46:52.734Z,1327.00
2023-04-19T00:47:52.754Z,1326.00
2023-04-19T00:48:52.759Z,1325.00
2023-04-19T00:49:52.764Z,1320.00
2023-04-19T00:50:52.770Z,1318.00
2023-04-19T00:51:52.763Z,1314.00
2023-04-19T00:52:52.770Z,1315.00
2023-04-19T00:53:52.768Z,1319.00
2023-04-19T00:54:52.806Z,1317.00
2023-04-19T00:55:52.783Z,1313.00
2023-04-19T00:56:52.794Z,1311.00
2023-04-19T00:57:52.801Z,1308.00
2023-04-19T00:58:52.796Z,1309.00
2023-04-19T00:59:52.837Z,1307.00
2023-04-19T01:00:52.823Z,1308.00
2023-04-19T01:01:52.921Z,1306.00
2023-04-19T01:02:52.979Z,1308.00
2023-04-19T01:03:52.995Z,1305.00
2023-04-19T01:04:53.034Z,1308.00
2023-04-19T01:05:52.889Z,1310.00
2023-04-19T01:06:51.913Z,1307.00
2023-04-19T01:07:51.926Z,1307.00
2023-04-19T01:08:52.915Z,1310.00
2023-04-19T01:09:52.962Z,1307.00
2023-04-19T01:10:52.962Z,1304.00
2023-04-19T01:11:52.960Z,1305.00
2023-04-19T01:12:51.988Z,1309.00
2023-04-19T01:13:53.006Z,1306.00
2023-04-19T01:14:53.039Z,1307.00
2023-04-19T01:15:52.106Z,1309.00
2023-04-19T01:16:53.047Z,1312.00
2023-04-19T01:17:53.156Z,1313.00
2023-04-19T01:18:53.074Z,1311.00
2023-04-19T01:19:52.103Z,1312.00
2023-04-19T01:20:52.184Z,1310.00
2023-04-19T01:21:53.150Z,1309.00
2023-04-19T01:22:52.160Z,1308.00
2023-04-19T01:23:52.168Z,1308.00
2023-04-19T01:24:53.222Z,1312.00
2023-04-19T01:25:53.239Z,1314.00
2023-04-19T01:26:53.262Z,1313.00
2023-04-19T01:27:53.272Z,1312.00
2023-04-19T01:28:53.291Z,1310.00
2023-04-19T01:29:53.293Z,1309.00
2023-04-19T01:30:52.365Z,1306.00
2023-04-19T01:31:53.347Z,1306.00
2023-04-19T01:32:52.388Z,1306.00
2023-04-19T01:33:53.381Z,1308.00
2023-04-19T01:34:53.401Z,1308.00
2023-04-19T01:35:52.712Z,1311.00
2023-04-19T01:36:53.479Z,1312.00
2023-04-19T01:37:53.481Z,1308.00
2023-04-19T01:38:53.506Z,1305.00
2023-04-19T01:39:53.540Z,1307.00
2023-04-19T01:40:53.571Z,1303.00
2023-04-19T01:41:52.584Z,1306.00
2023-04-19T01:42:52.640Z,1307.00
2023-04-19T01:43:52.632Z,1311.00
2023-04-19T01:44:53.657Z,1310.00
2023-04-19T01:45:52.695Z,1308.00
2023-04-19T01:46:52.806Z,1310.00
2023-04-19T01:47:53.791Z,1309.00
2023-04-19T01:48:53.779Z,1310.00
2023-04-19T01:49:53.796Z,1311.00
2023-04-19T01:50:53.834Z,1311.00
2023-04-19T01:51:53.855Z,1310.00
2023-04-19T01:52:53.909Z,1307.00
2023-04-19T01:53:53.912Z,1307.00
2023-04-19T01:54:52.950Z,1307.00
2023-04-19T01:55:52.973Z,1306.00
2023-04-19T01:56:54.004Z,1305.00
2023-04-19T01:57:54.767Z,1303.00
2023-04-19T01:58:54.076Z,1303.00
2023-04-19T01:59:53.120Z,1299.00
2023-04-19T02:00:54.161Z,1299.00
2023-04-19T02:01:54.224Z,1296.00
2023-04-19T02:02:53.387Z,1293.00
2023-04-19T02:03:54.385Z,1293.00
2023-04-19T02:04:54.264Z,1293.00
2023-04-19T02:05:53.279Z,1292.00
2023-04-19T02:06:53.344Z,1293.00
2023-04-19T02:07:53.343Z,1296.00
2023-04-19T02:08:54.423Z,1298.00
2023-04-19T02:09:54.417Z,1300.00
2023-04-19T02:10:54.453Z,1298.00
2023-04-19T02:11:53.469Z,1299.00
2023-04-19T02:12:54.504Z,1296.00
2023-04-19T02:13:54.518Z,1297.00
2023-04-19T02:14:54.547Z,1294.00
2023-04-19T02:15:54.647Z,1291.00
2023-04-19T02:16:54.671Z,1290.00
2023-04-19T02:17:53.712Z,1289.00
2023-04-19T02:18:54.688Z,1289.00
2023-04-19T02:19:54.733Z,1287.00
2023-04-19T02:20:54.824Z,1287.00
2023-04-19T02:21:54.809Z,1287.00
2023-04-19T02:22:53.853Z,1287.00
2023-04-19T02:23:54.897Z,1290.00
2023-04-19T02:24:54.975Z,1292.00
2023-04-19T02:25:54.972Z,1293.00
2023-04-19T02:26:53.980Z,1292.00
2023-04-19T02:27:54.026Z,1293.00
2023-04-19T02:28:55.087Z,1295.00
2023-04-19T02:29:55.088Z,1294.00
2023-04-19T02:30:55.137Z,1291.00
2023-04-19T02:31:54.241Z,1290.00
2023-04-19T02:32:55.315Z,1292.00
2023-04-19T02:33:55.227Z,1289.00
2023-04-19T02:34:55.280Z,1290.00
2023-04-19T02:35:55.270Z,1289.00
2023-04-19T02:36:55.288Z,1288.00
2023-04-19T02:37:54.313Z,1289.00
2023-04-19T02:38:54.359Z,1291.00
2023-04-19T02:39:55.404Z,1288.00
2023-04-19T02:40:54.452Z,1288.00
2023-04-19T02:41:55.442Z,1290.00
2023-04-19T02:42:55.450Z,1284.00
2023-04-19T02:43:55.467Z,1284.00
2023-04-19T02:44:55.493Z,1282.00
2023-04-19T02:45:55.525Z,1279.00
2023-04-19T02:46:55.551Z,1274.00
2023-04-19T02:47:54.575Z,1275.00
2023-04-19T02:48:55.560Z,1271.00
2023-04-19T02:49:55.601Z,1273.00
2023-04-19T02:50:54.610Z,1274.00
2023-04-19T02:51:55.596Z,1278.00
2023-04-19T02:52:55.614Z,1282.00
2023-04-19T02:53:54.614Z,1283.00
2023-04-19T02:54:54.632Z,1280.00
2023-04-19T02:55:55.630Z,1279.00
2023-04-19T02:56:54.631Z,1282.00
2023-04-19T02:57:54.608Z,1279.00
2023-04-19T02:58:54.616Z,1277.00
2023-04-19T02:59:54.620Z,1274.00
2023-04-19T03:00:54.680Z,1277.00
2023-04-19T03:01:55.766Z,1277.00
2023-04-19T03:02:55.781Z,1277.00
2023-04-19T03:03:55.807Z,1276.00
2023-04-19T03:04:55.646Z,1276.00
2023-04-19T03:05:54.678Z,1273.00
2023-04-19T03:06:55.704Z,1274.00
2023-04-19T03:08:08.430Z,1271.00
2023-04-19T03:08:55.716Z,1268.00
2023-04-19T03:09:58.747Z,1268.00
2023-04-19T03:10:55.731Z,1267.00
2023-04-19T03:12:04.248Z,1265.00
2023-04-19T03:12:55.694Z,1262.00
2023-04-19T03:13:55.687Z,1261.00
2023-04-19T03:14:54.673Z,1260.00
2023-04-19T03:15:54.699Z,1260.00
2023-04-19T03:17:08.323Z,1260.00
2023-04-19T03:17:55.720Z,1257.00
2023-04-19T03:18:54.661Z,1257.00
2023-04-19T03:19:55.793Z,1258.00
2023-04-19T03:20:54.633Z,1257.00
2023-04-19T03:21:54.622Z,1258.00
2023-04-19T03:22:54.609Z,1259.00
2023-04-19T03:23:55.636Z,1256.00
2023-04-19T03:24:55.591Z,1259.00
2023-04-19T03:25:55.597Z,1260.00
2023-04-19T03:26:54.581Z,1262.00
2023-04-19T03:27:55.614Z,1261.00
2023-04-19T03:28:55.562Z,1261.00
2023-04-19T03:29:54.559Z,1261.00
2023-04-19T03:30:55.567Z,1264.00
2023-04-19T03:31:54.561Z,1259.00
2023-04-19T03:32:54.609Z,1257.00
2023-04-19T03:33:55.538Z,1254.00
2023-04-19T03:34:55.552Z,1255.00
2023-04-19T03:35:55.546Z,1255.00
2023-04-19T03:36:55.533Z,1256.00
2023-04-19T03:37:55.499Z,1256.00
2023-04-19T03:38:55.508Z,1255.00
2023-04-19T03:39:54.493Z,1253.00
2023-04-19T03:40:55.641Z,1251.00
2023-04-19T03:41:55.540Z,1253.00
2023-04-19T03:42:55.560Z,1252.00
2023-04-19T03:43:55.634Z,1251.00
2023-04-19T03:44:54.643Z,1253.00
2023-04-19T03:45:55.698Z,1253.00
2023-04-19T03:46:54.739Z,1253.00
2023-04-19T03:47:54.854Z,1251.00
2023-04-19T03:48:55.805Z,1252.00
2023-04-19T03:49:54.851Z,1250.00
2023-04-19T03:50:54.883Z,1250.00
2023-04-19T03:51:55.940Z,1250.00
2023-04-19T03:52:55.970Z,1250.00
2023-04-19T03:53:55.026Z,1248.00
2023-04-19T03:54:56.060Z,1243.00
2023-04-19T03:55:55.085Z,1243.00
2023-04-19T03:56:56.150Z,1244.00
2023-04-19T03:57:55.182Z,1245.00
2023-04-19T03:58:55.221Z,1245.00
2023-04-19T03:59:55.285Z,1246.00
2023-04-19T04:00:56.299Z,1244.00
2023-04-19T04:01:56.017Z,1245.00
2023-04-19T04:02:55.592Z,1244.00
2023-04-19T04:03:56.534Z,1243.00
2023-04-19T04:04:55.530Z,1241.00
2023-04-19T04:05:56.494Z,1243.00
2023-04-19T04:06:56.544Z,1245.00
2023-04-19T04:07:56.599Z,1243.00
2023-04-19T04:08:56.605Z,1244.00
2023-04-19T04:09:56.652Z,1244.00
2023-04-19T04:10:56.728Z,1245.00
2023-04-19T04:11:56.734Z,1243.00
2023-04-19T04:12:55.759Z,1237.00
2023-04-19T04:13:56.828Z,1240.00
2023-04-19T04:14:56.893Z,1236.00
2023-04-19T04:15:56.927Z,1236.00
2023-04-19T04:16:55.938Z,1235.00
2023-04-19T04:17:56.025Z,1235.00
2023-04-19T04:18:57.029Z,1233.00
2023-04-19T04:19:57.076Z,1236.00
2023-04-19T04:20:56.102Z,1232.00
2023-04-19T04:21:56.133Z,1232.00
2023-04-19T04:22:57.186Z,1235.00
2023-04-19T04:23:56.228Z,1235.00
2023-04-19T04:24:57.271Z,1236.00
2023-04-19T04:25:57.327Z,1237.00
2023-04-19T04:26:57.384Z,1237.00
2023-04-19T04:27:57.424Z,1235.00
2023-04-19T04:28:56.482Z,1234.00
2023-04-19T04:29:57.539Z,1236.00
2023-04-19T04:30:57.595Z,1232.00
2023-04-19T04:31:56.689Z,1232.00
2023-04-19T04:32:57.710Z,1230.00
2023-04-19T04:33:57.706Z,1229.00
2023-04-19T04:34:57.770Z,1227.00
2023-04-19T04:35:57.817Z,1228.00
2023-04-19T04:36:57.872Z,1226.00
2023-04-19T04:37:57.919Z,1222.00
2023-04-19T04:38:57.965Z,1220.00
2023-04-19T04:39:57.046Z,1223.00
2023-04-19T04:40:58.059Z,1223.00
2023-04-19T04:41:58.108Z,1222.00
2023-04-19T04:42:58.155Z,1222.00
2023-04-19T04:44:11.487Z,1222.00
2023-04-19T04:44:58.210Z,1224.00
2023-04-19T04:45:58.530Z,1222.00
2023-04-19T04:46:57.210Z,1221.00
2023-04-19T04:47:57.280Z,1217.00
2023-04-19T04:48:58.164Z,1215.00
2023-04-19T04:49:57.165Z,1214.00
2023-04-19T04:50:57.160Z,1213.00
2023-04-19T04:51:58.131Z,1212.00
2023-04-19T04:52:58.120Z,1210.00
2023-04-19T04:53:58.179Z,1215.00
2023-04-19T04:54:58.125Z,1218.00
2023-04-19T04:55:57.115Z,1218.00
2023-04-19T04:56:57.315Z,1220.00
2023-04-19T04:57:58.093Z,1220.00
2023-04-19T04:58:58.073Z,1220.00
2023-04-19T04:59:57.070Z,1219.00
2023-04-19T05:00:58.114Z,1219.00
2023-04-19T05:01:57.117Z,1220.00
2023-04-19T05:02:57.212Z,1220.00
2023-04-19T05:03:58.084Z,1220.00
2023-04-19T05:04:58.032Z,1219.00
2023-04-19T05:05:57.034Z,1217.00
2023-04-19T05:06:57.035Z,1215.00
2023-04-19T05:07:58.056Z,1216.00
2023-04-19T05:08:57.018Z,1213.00
2023-04-19T05:09:57.575Z,1214.00
2023-04-19T05:10:57.036Z,1215.00
2023-04-19T05:11:58.043Z,1215.00
2023-04-19T05:12:57.090Z,1217.00
2023-04-19T05:13:58.104Z,1217.00
2023-04-19T05:14:58.137Z,1219.00
2023-04-19T05:15:58.190Z,1216.00
2023-04-19T05:16:58.192Z,1215.00
2023-04-19T05:17:58.257Z,1214.00
2023-04-19T05:18:57.312Z,1211.00
2023-04-19T05:19:58.297Z,1211.00
2023-04-19T05:20:57.391Z,1209.00
2023-04-19T05:21:57.369Z,1213.00
2023-04-19T05:22:58.410Z,1213.00
2023-04-19T05:23:57.467Z,1211.00
2023-04-19T05:24:58.453Z,1211.00
2023-04-19T05:25:57.502Z,1204.00
2023-04-19T05:26:58.526Z,1204.00
2023-04-19T05:27:58.597Z,1205.00
2023-04-19T05:28:57.595Z,1206.00
2023-04-19T05:29:57.609Z,1209.00
2023-04-19T05:30:57.689Z,1204.00
2023-04-19T05:31:57.691Z,1207.00
2023-04-19T05:32:57.760Z,1209.00
2023-04-19T05:33:58.762Z,1213.00
2023-04-19T05:34:57.826Z,1215.00
2023-04-19T05:35:58.831Z,1218.00
2023-04-19T05:36:57.870Z,1218.00
2023-04-19T05:37:58.894Z,1222.00
2023-04-19T05:38:58.923Z,1225.00
2023-04-19T05:39:58.941Z,1231.00
2023-04-19T05:40:58.973Z,1235.00
2023-04-19T05:41:57.987Z,1236.00
2023-04-19T05:42:59.020Z,1241.00
2023-04-19T05:43:58.034Z,1251.00
2023-04-19T05:44:58.081Z,1259.00
2023-04-19T05:45:58.105Z,1274.00
2023-04-19T05:46:59.108Z,1283.00
2023-04-19T05:47:58.214Z,1294.00
2023-04-19T05:48:58.148Z,1301.00
2023-04-19T05:49:59.246Z,1305.00
2023-04-19T05:50:59.189Z,1315.00
2023-04-19T05:51:58.201Z,1328.00
2023-04-19T05:52:58.289Z,1356.00
2023-04-19T05:53:59.301Z,1384.00
2023-04-19T05:54:58.242Z,1405.00
2023-04-19T05:55:59.236Z,1410.00
2023-04-19T05:56:59.228Z,1380.00
2023-04-19T05:57:59.284Z,1263.00
2023-04-19T05:58:59.277Z,1359.00
2023-04-19T06:00:58.313Z,1377.00
2023-04-19T06:01:59.374Z,1400.00
2023-04-19T06:02:58.483Z,1433.00
2023-04-19T06:03:59.395Z,1469.00
2023-04-19T06:05:02.492Z,1505.00
2023-04-19T06:05:59.333Z,1528.00
2023-04-19T06:06:58.247Z,1556.00
2023-04-19T06:08:58.327Z,1636.00
2023-04-19T06:09:59.311Z,1649.00
2023-04-19T06:11:02.632Z,1667.00
2023-04-19T06:11:59.212Z,1683.00
2023-04-19T06:12:59.362Z,1706.00
2023-04-19T06:13:58.180Z,1735.00
2023-04-19T06:14:58.184Z,1762.00
2023-04-19T06:15:59.241Z,1817.00
2023-04-19T06:16:58.177Z,1838.00
2023-04-19T06:17:59.821Z,1863.00
2023-04-19T06:18:59.166Z,1883.00
2023-04-19T06:19:58.145Z,1900.00
2023-04-19T06:20:58.198Z,1919.00
2023-04-19T06:21:59.247Z,1950.00
2023-04-19T06:22:58.137Z,1973.00
2023-04-19T06:23:58.124Z,1991.00
2023-04-19T06:24:59.101Z,2013.00
2023-04-19T06:25:58.100Z,2041.00
2023-04-19T06:26:59.120Z,2067.00
2023-04-19T06:27:58.088Z,2092.00
2023-04-19T06:28:59.080Z,2106.00
2023-04-19T06:29:59.080Z,2127.00
2023-04-19T06:30:58.086Z,2160.00
2023-04-19T06:31:59.163Z,2189.00
2023-04-19T06:32:59.088Z,2224.00
2023-04-19T06:33:59.036Z,2261.00
2023-04-19T06:34:58.071Z,2280.00
2023-04-19T06:35:58.113Z,2318.00
2023-04-19T06:36:59.178Z,2346.00
2023-04-19T06:37:58.040Z,2367.00
2023-04-19T06:38:59.039Z,2404.00
2023-04-19T06:39:59.008Z,2423.00
2023-04-19T06:40:59.009Z,2443.00
2023-04-19T06:41:59.006Z,2467.00
2023-04-19T06:42:59.039Z,2489.00
2023-04-19T06:43:58.018Z,2507.00
2023-04-19T06:44:58.025Z,2588.00
2023-04-19T06:45:59.120Z,2603.00
2023-04-19T06:46:58.080Z,2636.00
2023-04-19T06:47:59.158Z,2653.00
2023-04-19T06:48:59.121Z,2687.00
2023-04-19T06:49:59.319Z,2715.00
2023-04-19T06:50:59.139Z,2764.00
2023-04-19T06:51:58.107Z,2799.00
2023-04-19T06:52:58.321Z,2808.00
2023-04-19T06:53:59.174Z,2830.00
2023-04-19T06:54:59.135Z,2856.00
2023-04-19T06:55:58.155Z,2890.00
2023-04-19T06:56:59.168Z,2905.00
2023-04-19T06:57:59.309Z,2944.00
2023-04-19T06:58:58.236Z,2981.00
2023-04-19T06:59:59.204Z,3013.00
2023-04-19T07:00:58.276Z,3004.00
2023-04-19T07:01:59.270Z,2985.00
2023-04-19T07:02:58.308Z,2952.00
2023-04-19T07:03:58.453Z,2873.00
2023-04-19T07:04:59.222Z,2814.00
2023-04-19T07:05:59.298Z,2703.00
2023-04-19T07:06:58.259Z,2630.00
2023-04-19T07:07:59.325Z,2548.00
2023-04-19T07:08:59.337Z,2442.00
2023-04-19T07:09:59.639Z,2394.00
2023-04-19T07:10:59.370Z,2322.00
2023-04-19T07:11:59.644Z,2282.00
2023-04-19T07:12:59.576Z,2214.00
2023-04-19T07:13:59.471Z,2141.00
2023-04-19T07:14:58.798Z,2100.00
2023-04-19T07:15:58.709Z,2103.00
2023-04-19T07:16:59.582Z,2111.00
2023-04-19T07:17:58.699Z,2119.00
2023-04-19T07:18:58.594Z,2128.00
2023-04-19T07:19:59.545Z,2145.00
2023-04-19T07:20:59.558Z,2159.00
2023-04-19T07:21:58.540Z,2171.00
2023-04-19T07:22:59.557Z,2193.00
2023-04-19T07:23:59.568Z,2204.00
2023-04-19T07:24:59.554Z,2217.00
2023-04-19T07:25:58.617Z,2234.00
2023-04-19T07:26:59.592Z,2257.00
2023-04-19T07:27:59.642Z,2274.00
2023-04-19T07:28:59.715Z,2292.00
2023-04-19T07:29:59.765Z,2321.00
2023-04-19T07:30:59.790Z,2347.00
2023-04-19T07:31:59.864Z,2363.00
2023-04-19T07:32:59.890Z,2379.00
2023-04-19T07:33:59.943Z,2400.00
2023-04-19T07:34:59.966Z,2423.00
2023-04-19T07:35:59.075Z,2437.00
2023-04-19T07:37:00.074Z,2464.00
2023-04-19T07:37:59.151Z,2492.00
2023-04-19T07:38:59.179Z,2531.00
2023-04-19T07:40:00.292Z,2546.00
2023-04-19T07:40:59.346Z,2565.00
2023-04-19T07:41:59.520Z,2592.00
2023-04-19T07:43:00.431Z,2608.00
2023-04-19T07:44:00.502Z,2639.00
2023-04-19T07:45:00.532Z,2707.00
2023-04-19T07:46:00.594Z,2725.00
2023-04-19T07:47:00.738Z,2774.00
2023-04-19T07:48:00.847Z,2796.00
2023-04-19T07:48:59.712Z,2815.00
2023-04-19T07:50:00.761Z,2824.00
2023-04-19T07:51:00.876Z,2823.00
2023-04-19T07:52:00.843Z,2819.00
2023-04-19T07:53:00.876Z,2821.00
2023-04-19T07:54:00.816Z,2824.00
2023-04-19T07:55:00.835Z,2820.00
2023-04-19T07:55:59.870Z,2818.00
2023-04-19T07:57:00.873Z,2820.00
2023-04-19T07:58:01.062Z,2818.00
2023-04-19T07:59:07.631Z,2817.00
2023-04-19T08:00:00.914Z,2817.00
2023-04-19T08:01:01.041Z,2817.00
2023-04-19T08:02:00.029Z,2818.00
2023-04-19T08:03:01.065Z,2821.00
2023-04-19T08:04:00.181Z,2820.00
2023-04-19T08:05:01.001Z,2819.00
2023-04-19T08:05:59.881Z,2813.00
2023-04-19T08:06:59.923Z,2818.00
2023-04-19T08:07:59.853Z,2815.00
2023-04-19T08:09:00.858Z,2816.00
2023-04-19T08:10:01.037Z,2814.00
2023-04-19T08:11:01.969Z,2814.00
2023-04-19T08:11:59.871Z,2822.00
2023-04-19T08:13:05.856Z,2821.00
2023-04-19T08:14:26.829Z,2820.00
2023-04-19T08:15:07.916Z,2817.00
2023-04-19T08:16:20.434Z,2814.00
2023-04-19T08:17:59.897Z,2806.00
2023-04-19T08:18:59.870Z,2807.00
2023-04-19T08:19:59.850Z,2808.00
2023-04-19T08:20:59.853Z,2800.00
2023-04-19T08:22:00.861Z,2801.00
2023-04-19T08:23:10.498Z,2795.00
2023-04-19T08:24:00.870Z,2795.00
2023-04-19T08:24:59.827Z,2790.00
2023-04-19T08:26:00.834Z,2789.00
2023-04-19T08:27:00.228Z,2791.00
2023-04-19T08:28:00.816Z,2791.00
2023-04-19T08:29:00.787Z,2788.00
2023-04-19T08:29:59.829Z,2791.00
2023-04-19T08:31:00.781Z,2792.00
2023-04-19T08:31:59.888Z,2784.00
2023-04-19T08:32:59.886Z,2786.00
2023-04-19T08:34:00.775Z,2779.00
2023-04-19T08:35:00.756Z,2774.00
2023-04-19T08:36:00.783Z,2776.00
2023-04-19T08:37:04.449Z,2778.00
2023-04-19T08:38:02.054Z,2778.00
2023-04-19T08:39:05.722Z,2776.00
2023-04-19T08:40:00.729Z,2776.00
2023-04-19T08:40:59.702Z,2773.00
2023-04-19T08:42:06.801Z,2771.00
2023-04-19T08:43:00.886Z,2766.00
2023-04-19T08:43:59.696Z,2766.00
2023-04-19T08:46:00.829Z,2765.00
2023-04-19T08:47:00.658Z,2766.00
2023-04-19T08:48:01.844Z,2763.00
2023-04-19T08:49:00.888Z,2761.00
2023-04-19T08:50:11.045Z,2760.00
2023-04-19T08:51:05.427Z,2757.00
2023-04-19T08:52:01.145Z,2756.00
2023-04-19T08:53:08.507Z,2753.00
2023-04-19T08:54:00.882Z,2752.00
2023-04-19T08:54:59.875Z,2748.00
2023-04-19T08:56:10.495Z,2747.00
2023-04-19T08:57:00.889Z,2746.00
2023-04-19T08:58:00.882Z,2738.00
2023-04-19T08:59:11.518Z,2737.00
2023-04-19T09:00:00.825Z,2732.00
2023-04-19T09:01:00.865Z,2728.00
2023-04-19T09:01:59.969Z,2729.00
2023-04-19T09:03:01.066Z,2729.00
2023-04-19T09:04:07.267Z,2728.00
2023-04-19T09:05:01.057Z,2724.00
2023-04-19T09:06:00.855Z,2720.00
2023-04-19T09:07:00.754Z,2718.00
2023-04-19T09:08:00.791Z,2714.00
2023-04-19T09:09:00.770Z,2713.00
2023-04-19T09:10:03.225Z,2716.00
2023-04-19T09:11:00.750Z,2714.00
2023-04-19T09:12:00.790Z,2711.00
2023-04-19T09:13:00.730Z,2714.00
2023-04-19T09:13:59.707Z,2710.00
2023-04-19T09:15:02.334Z,2711.00
2023-04-19T09:16:00.927Z,2710.00
2023-04-19T09:17:00.735Z,2710.00
2023-04-19T09:18:00.821Z,2709.00
2023-04-19T09:19:08.599Z,2708.00
2023-04-19T09:20:00.696Z,2705.00
2023-04-19T09:21:00.710Z,2699.00
2023-04-19T09:21:59.662Z,2695.00
2023-04-19T09:23:00.664Z,2692.00
2023-04-19T09:24:02.420Z,2692.00
2023-04-19T09:27:00.617Z,2688.00
2023-04-19T09:28:00.661Z,2683.00
2023-04-19T09:28:59.605Z,2676.00
2023-04-19T09:29:59.596Z,2668.00
2023-04-19T09:31:15.148Z,2659.00
2023-04-19T09:32:00.676Z,2562.00
2023-04-19T09:33:00.618Z,2579.00
2023-04-19T09:34:00.660Z,2608.00
2023-04-19T09:34:59.745Z,2438.00
2023-04-19T09:35:59.589Z,2383.00
2023-04-19T09:37:11.723Z,2395.00
2023-04-19T09:38:05.833Z,2249.00
2023-04-19T09:39:00.538Z,2252.00
2023-04-19T09:40:00.520Z,2155.00
2023-04-19T09:41:00.551Z,2201.00
2023-04-19T09:42:00.507Z,2164.00
2023-04-19T09:43:12.887Z,2058.00
2023-04-19T09:44:15.557Z,2049.00
2023-04-19T09:45:25.425Z,1638.00
2023-04-19T09:46:00.559Z,1682.00
2023-04-19T09:47:00.506Z,1721.00
2023-04-19T09:48:00.965Z,1764.00
2023-04-19T09:49:04.049Z,1758.00
2023-04-19T09:50:00.698Z,1763.00
2023-04-19T09:51:04.609Z,1758.00
2023-04-19T09:52:00.437Z,1650.00
2023-04-19T09:53:01.484Z,1727.00
2023-04-19T09:54:00.420Z,1714.00
2023-04-19T09:54:59.426Z,1709.00
2023-04-19T09:56:02.754Z,1694.00
2023-04-19T09:57:01.619Z,1656.00
2023-04-19T09:58:00.421Z,1686.00
2023-04-19T09:59:11.956Z,1687.00
2023-04-19T10:00:00.384Z,1677.00
2023-04-19T10:01:13.241Z,1664.00
2023-04-19T10:02:00.462Z,1623.00
2023-04-19T10:02:59.388Z,1590.00
2023-04-19T10:04:14.455Z,1586.00
2023-04-19T10:06:06.752Z,1497.00
2023-04-19T10:08:01.418Z,1510.00
2023-04-19T10:08:59.305Z,1495.00
2023-04-19T10:10:11.589Z,1467.00
2023-04-19T10:11:00.298Z,1459.00
2023-04-19T10:12:06.553Z,1449.00
2023-04-19T10:14:00.274Z,1411.00
2023-04-19T10:14:59.288Z,1485.00
2023-04-19T10:16:04.814Z,1351.00
2023-04-19T10:17:00.340Z,1331.00
2023-04-19T10:18:00.260Z,1347.00
2023-04-19T10:19:00.240Z,1347.00
2023-04-19T10:20:00.259Z,1338.00
2023-04-19T10:21:00.259Z,1337.00
2023-04-19T10:21:59.310Z,1334.00
2023-04-19T10:22:59.194Z,1331.00
2023-04-19T10:23:59.206Z,1319.00
2023-04-19T10:24:59.185Z,1299.00
2023-04-19T10:26:00.214Z,1290.00
2023-04-19T10:27:00.183Z,1287.00
2023-04-19T10:27:59.248Z,1272.00
2023-04-19T10:28:59.312Z,1259.00
2023-04-19T10:30:00.337Z,1258.00
2023-04-19T10:31:00.382Z,1200.00
2023-04-19T10:31:59.482Z,1216.00
2023-04-19T10:33:00.577Z,1217.00
2023-04-19T10:33:59.557Z,1218.00
2023-04-19T10:35:00.610Z,1217.00
2023-04-19T10:36:00.650Z,1214.00
2023-04-19T10:37:00.695Z,1212.00
2023-04-19T10:37:59.900Z,1210.00
2023-04-19T10:38:59.780Z,1202.00
2023-04-19T10:40:00.830Z,1193.00
2023-04-19T10:40:59.878Z,1189.00
2023-04-19T10:41:59.925Z,1162.00
2023-04-19T10:42:59.948Z,1131.00
2023-04-19T10:44:00.398Z,1163.00
2023-04-19T10:45:00.989Z,1142.00
2023-04-19T10:46:01.053Z,1106.00
2023-04-19T10:47:00.029Z,1102.00
2023-04-19T10:48:00.095Z,1112.00
2023-04-19T10:49:01.049Z,1164.00
2023-04-19T10:50:01.084Z,1188.00
2023-04-19T10:51:01.168Z,1196.00
2023-04-19T10:52:01.231Z,1213.00
2023-04-19T10:53:00.285Z,1229.00
2023-04-19T10:54:00.538Z,1261.00
2023-04-19T10:55:00.328Z,1280.00
2023-04-19T10:56:01.371Z,1297.00
2023-04-19T10:57:00.439Z,1335.00
2023-04-19T10:58:00.426Z,1387.00
2023-04-19T10:59:01.932Z,1403.00
2023-04-19T11:00:00.503Z,1418.00
2023-04-19T11:01:01.566Z,1435.00
2023-04-19T11:02:00.621Z,1459.00
2023-04-19T11:03:00.698Z,1488.00
2023-04-19T11:04:00.681Z,1530.00
2023-04-19T11:05:00.608Z,1549.00
2023-04-19T11:06:01.569Z,1561.00
2023-04-19T11:07:00.523Z,1588.00
2023-04-19T11:08:01.564Z,1609.00
2023-04-19T11:09:01.520Z,1646.00
2023-04-19T11:10:00.577Z,1672.00
2023-04-19T11:11:00.562Z,1699.00
2023-04-19T11:12:00.511Z,1714.00
2023-04-19T11:13:01.531Z,1729.00
2023-04-19T11:14:01.525Z,1771.00
2023-04-19T11:15:01.635Z,1793.00
2023-04-19T11:16:01.778Z,1820.00
2023-04-19T11:17:01.839Z,1847.00
2023-04-19T11:18:12.708Z,1881.00
2023-04-19T11:19:01.733Z,1907.00
2023-04-19T11:20:01.713Z,1923.00
2023-04-19T11:21:00.686Z,1943.00
2023-04-19T11:22:01.705Z,1964.00
2023-04-19T11:23:01.674Z,1986.00
2023-04-19T11:24:00.697Z,2018.00
2023-04-19T11:25:01.696Z,2053.00
2023-04-19T11:26:01.701Z,2084.00
2023-04-19T11:27:00.648Z,2104.00
2023-04-19T11:28:00.669Z,2114.00
2023-04-19T11:29:00.631Z,2133.00
2023-04-19T11:30:01.659Z,2165.00
2023-04-19T11:31:00.692Z,2191.00
2023-04-19T11:32:01.678Z,2210.00
2023-04-19T11:33:01.670Z,2228.00
2023-04-19T11:34:00.622Z,2252.00
2023-04-19T11:35:01.660Z,2276.00
2023-04-19T11:36:01.596Z,2297.00
2023-04-19T11:37:00.583Z,2328.00
2023-04-19T11:38:01.572Z,2364.00
2023-04-19T11:39:01.609Z,2384.00
2023-04-19T11:40:02.104Z,2389.00
2023-04-19T11:41:01.674Z,2385.00
2023-04-19T11:42:01.700Z,2384.00
2023-04-19T11:43:01.551Z,2373.00
2023-04-19T11:44:01.557Z,2360.00
2023-04-19T11:45:00.509Z,2346.00
2023-04-19T11:46:01.512Z,2332.00
2023-04-19T11:47:01.534Z,2316.00
2023-04-19T11:48:00.638Z,2283.00
2023-04-19T11:49:00.500Z,2262.00
2023-04-19T11:50:00.482Z,2251.00
2023-04-19T11:51:01.615Z,2240.00
2023-04-19T11:52:04.660Z,2221.00
2023-04-19T11:53:01.470Z,2210.00
2023-04-19T11:54:01.467Z,2191.00
2023-04-19T11:55:01.426Z,2174.00
2023-04-19T11:56:01.475Z,2143.00
2023-04-19T11:57:00.424Z,2140.00
2023-04-19T11:58:01.488Z,2132.00
2023-04-19T11:59:01.440Z,2121.00
2023-04-19T12:00:00.422Z,2112.00
2023-04-19T12:01:01.400Z,2110.00
2023-04-19T12:02:01.464Z,2104.00
2023-04-19T12:03:01.562Z,2087.00
2023-04-19T12:04:02.082Z,2068.00
2023-04-19T12:05:01.750Z,2053.00
2023-04-19T12:06:01.661Z,2036.00
2023-04-19T12:07:00.548Z,2026.00
2023-04-19T12:08:00.587Z,2019.00
2023-04-19T12:09:00.637Z,2012.00
2023-04-19T12:10:01.652Z,2004.00
2023-04-19T12:11:01.704Z,2005.00
2023-04-19T12:12:00.753Z,2001.00
2023-04-19T12:13:00.800Z,2003.00
2023-04-19T12:14:01.881Z,2000.00
2023-04-19T12:15:00.894Z,1998.00